地図

経路データ

SID SEASON NUMBER BASIN SUBBASIN NAME ISO_TIME NATURE LAT LON WMO_WIND WMO_PRES WMO_AGENCY TRACK_TYPE DIST2LAND LANDFALL IFLAG USA_AGENCY USA_ATCF_ID USA_LAT USA_LON USA_RECORD USA_STATUS USA_WIND USA_PRES USA_SSHS USA_R34_NE USA_R34_SE USA_R34_SW USA_R34_NW USA_R50_NE USA_R50_SE USA_R50_SW USA_R50_NW USA_R64_NE USA_R64_SE USA_R64_SW USA_R64_NW USA_POCI USA_ROCI USA_RMW USA_EYE TOKYO_LAT TOKYO_LON TOKYO_GRADE TOKYO_WIND TOKYO_PRES TOKYO_R50_DIR TOKYO_R50_LONG TOKYO_R50_SHORT TOKYO_R30_DIR TOKYO_R30_LONG TOKYO_R30_SHORT TOKYO_LAND CMA_LAT CMA_LON CMA_CAT CMA_WIND CMA_PRES HKO_LAT HKO_LON HKO_CAT HKO_WIND HKO_PRES NEWDELHI_LAT NEWDELHI_LON NEWDELHI_GRADE NEWDELHI_WIND NEWDELHI_PRES NEWDELHI_CI NEWDELHI_DP NEWDELHI_POCI REUNION_LAT REUNION_LON REUNION_TYPE REUNION_WIND REUNION_PRES REUNION_TNUM REUNION_CI REUNION_RMW REUNION_R34_NE REUNION_R34_SE REUNION_R34_SW REUNION_R34_NW REUNION_R50_NE REUNION_R50_SE REUNION_R50_SW REUNION_R50_NW REUNION_R64_NE REUNION_R64_SE REUNION_R64_SW REUNION_R64_NW BOM_LAT BOM_LON BOM_TYPE BOM_WIND BOM_PRES BOM_TNUM BOM_CI BOM_RMW BOM_R34_NE BOM_R34_SE BOM_R34_SW BOM_R34_NW BOM_R50_NE BOM_R50_SE BOM_R50_SW BOM_R50_NW BOM_R64_NE BOM_R64_SE BOM_R64_SW BOM_R64_NW BOM_ROCI BOM_POCI BOM_EYE BOM_POS_METHOD BOM_PRES_METHOD NADI_LAT NADI_LON NADI_CAT NADI_WIND NADI_PRES WELLINGTON_LAT WELLINGTON_LON WELLINGTON_WIND WELLINGTON_PRES DS824_LAT DS824_LON DS824_STAGE DS824_WIND DS824_PRES TD9636_LAT TD9636_LON TD9636_STAGE TD9636_WIND TD9636_PRES TD9635_LAT TD9635_LON TD9635_WIND TD9635_PRES TD9635_ROCI NEUMANN_LAT NEUMANN_LON NEUMANN_CLASS NEUMANN_WIND NEUMANN_PRES MLC_LAT MLC_LON MLC_CLASS MLC_WIND MLC_PRES USA_GUST BOM_GUST BOM_GUST_PER REUNION_GUST REUNION_GUST_PER USA_SEAHGT USA_SEARAD_NE USA_SEARAD_SE USA_SEARAD_SW USA_SEARAD_NW STORM_SPEED STORM_DIR
1997326S09203 1998 110 SP MM OSEA 1997-11-21 18:00:00 TS -9.20000 -156.700 main 1763 1759 O___________O_ jtwc_sh SH061998 -9.20000 -156.700 20 -1 -9.20000 -156.700 TC 20 4 150
1997326S09203 1998 110 SP MM OSEA 1997-11-21 21:00:00 TS -9.36000 -156.603 main 1766 1763 P___________P_ SH061998 -9.36000 -156.603 25 -1 -9.36000 -156.603 TC 25 3 168
1997326S09203 1998 110 SP MM OSEA 1997-11-22 00:00:00 TS -9.50000 -156.625 15 1004 nadi main 1763 1763 O_______O___O_ jtwc_sh SH061998 -9.50000 -156.500 30 -1 -9.50000 -157.000 15 1004 -9.50000 -157.000 15 1004 -9.50000 -156.500 TC 30 3 152
1997326S09203 1998 110 SP MM OSEA 1997-11-22 03:00:00 TS -9.58836 -156.474 main 1770 1770 P______IP___P_ SH061998 -9.60750 -156.393 30 -1 -9.55008 -156.638 15 1004 -9.55008 -156.638 15 1004 -9.60750 -156.393 TC 30 3 123
1997326S09203 1998 110 SP MM OSEA 1997-11-22 06:00:00 TS -9.65714 -156.386 15 1004 nadi main 1778 1767 O_______O___O_ jtwc_sh SH061998 -9.70000 -156.300 30 -1 -9.60000 -156.500 15 1004 -9.60000 -156.500 15 1004 -9.70000 -156.300 TC 30 1 190
1997326S09203 1998 110 SP MM OSEA 1997-11-22 09:00:00 TS -9.72878 -156.476 main 1767 1754 P______IP___P_ SH061998 -9.80750 -156.228 30 -1 -9.65007 -156.725 15 1004 -9.65007 -156.725 15 1004 -9.80750 -156.228 TC 30 3 241
1997326S09203 1998 110 SP MM OSEA 1997-11-22 12:00:00 TS -9.80000 -156.650 15 1004 nadi main 1754 1729 O_______O___O_ jtwc_sh SH061998 -9.90000 -156.200 30 -1 -9.70000 -157.100 15 1004 -9.70000 -157.100 15 1004 -9.90000 -156.200 TC 30 3 247
1997326S09203 1998 110 SP MM OSEA 1997-11-22 15:00:00 TS -9.86124 -156.800 main 1729 1719 P______IP___P_ SH061998 -9.97248 -156.212 30 -1 -9.75001 -157.388 15 1004 -9.75001 -157.388 15 1004 -9.97248 -156.212 TC 30 3 251
1997326S09203 1998 110 SP MM OSEA 1997-11-22 18:00:00 TS -9.90000 -156.950 15 1004 nadi main 1708 1698 O_______O___O_ jtwc_sh SH061998 -10.0000 -156.300 30 -1 -9.80000 -157.600 15 1004 -9.80000 -157.600 15 1004 -10.0000 -156.300 TC 30 3 261
1997326S09203 1998 110 SP MM OSEA 1997-11-22 21:00:00 TS -9.90374 -157.086 main 1698 1687 P______IP___P_ SH061998 -9.95752 -156.478 30 -1 -9.84997 -157.695 17 1003 -9.84997 -157.695 17 1003 -9.95752 -156.478 TC 30 2 270
1997326S09203 1998 110 SP MM OSEA 1997-11-23 00:00:00 TS -9.90000 -157.200 20 1002 nadi main 1687 1677 O_______O___O_ jtwc_sh SH061998 -9.90000 -156.700 30 -1 -9.90000 -157.700 20 1002 -9.90000 -157.700 20 1002 -9.90000 -156.700 TC 30 2 267
1997326S09203 1998 110 SP MM OSEA 1997-11-23 03:00:00 TS -9.91376 -157.286 main 1677 1677 P______IP___P_ SH061998 -9.87751 -156.915 30 -1 -9.95000 -157.658 20 1002 -9.95000 -157.658 20 1002 -9.87751 -156.915 TC 30 2 252
1997326S09203 1998 110 SP MM OSEA 1997-11-23 06:00:00 TS -9.95000 -157.350 20 1002 nadi main 1666 1663 O_______O___O_ jtwc_sh SH061998 -9.90000 -157.100 30 -1 -10.0000 -157.600 20 1002 -10.0000 -157.600 20 1002 -9.90000 -157.100 TC 30 1 244
1997326S09203 1998 110 SP MM OSEA 1997-11-23 09:00:00 TS -9.96498 -157.389 main 1663 1660 P______IP___P_ SH061998 -9.95498 -157.215 32 -1 -9.97498 -157.563 20 1002 -9.97498 -157.563 20 1002 -9.95498 -157.215 TC 32 2 212
1997326S09203 1998 110 SP MM OSEA 1997-11-23 12:00:00 TS -10.1000 -157.450 20 1002 nadi main 1650 1630 O_______O___O_ jtwc_sh SH061998 -10.1000 -157.300 35 0 -10.1000 -157.600 20 1002 -10.1000 -157.600 20 1002 -10.1000 -157.300 TC 35 5 203
1997326S09203 1998 110 SP MM OSEA 1997-11-23 15:00:00 TS -10.4613 -157.604 main 1627 1606 P______IP___P_ SH061998 -10.3475 -157.400 35 0 -10.5751 -157.807 22 1001 -10.5751 -157.807 22 1001 -10.3475 -157.400 TC 35 9 199
1997326S09203 1998 110 SP MM OSEA 1997-11-23 18:00:00 TS -10.9500 -157.750 25 1000 nadi main 1606 1584 O_______O___O_ jtwc_sh SH061998 -10.7000 -157.500 35 0 -11.2000 -158.000 25 1000 -11.2000 -158.000 25 1000 -10.7000 -157.500 TC 35 10 192
1997326S09203 1998 110 SP MM OSEA 1997-11-23 21:00:00 TS -11.4387 -157.813 main 1584 1575 P______IP___P_ SH061998 -11.0975 -157.615 35 0 -11.7799 -158.010 30 997 -11.7799 -158.010 30 997 -11.0975 -157.615 TC 35 10 183
1997326S09203 1998 110 SP MM OSEA 1997-11-24 00:00:00 TS -11.9500 -157.800 35 995 nadi main 1575 1567 O_______O___O_ jtwc_sh SH061998 -11.6000 -157.700 35 0 -12.3000 -157.900 35 995 -12.3000 -157.900 35 995 -11.6000 -157.700 TC 35 11 176
1997326S09203 1998 110 SP MM OSEA 1997-11-24 03:00:00 TS -12.4875 -157.741 main 1576 1573 P______IP___P_ SH061998 -12.2725 -157.752 35 0 -12.7025 -157.730 37 992 -12.7025 -157.730 37 992 -12.2725 -157.752 TC 35 10 169
1997326S09203 1998 110 SP MM OSEA 1997-11-24 06:00:00 TS -12.9500 -157.600 40 990 nadi main 1583 1582 O_______O___O_ jtwc_sh SH061998 -12.9000 -157.700 35 0 -13.0000 -157.500 40 990 -13.0000 -157.500 40 990 -12.9000 -157.700 TC 35 8 156
1997326S09203 1998 110 SP MM OSEA 1997-11-24 09:00:00 TS -13.2449 -157.391 main 1602 1601 P______IP___P_ SH061998 -13.2749 -157.510 45 0 -13.2149 -157.272 42 988 -13.2149 -157.272 42 988 -13.2749 -157.510 TC 45 7 136
1997326S09203 1998 110 SP MM OSEA 1997-11-24 12:00:00 TS -13.4500 -157.100 45 987 nadi main 1633 1632 O_______O___O_ jtwc_sh SH061998 -13.5000 -157.200 55 0 -13.4000 -157.000 45 987 -13.4000 -157.000 45 987 -13.5000 -157.200 TC 55 8 124
1997326S09203 1998 110 SP MM OSEA 1997-11-24 15:00:00 TS -13.6763 -156.744 main 1674 1674 P______IP___P_ SH061998 -13.6875 -156.830 55 0 -13.6650 -156.658 47 986 -13.6650 -156.658 47 986 -13.6875 -156.830 TC 55 8 119
1997326S09203 1998 110 SP MM OSEA 1997-11-24 18:00:00 TS -13.8500 -156.350 50 985 nadi main 1706 1706 O_______O___O_ jtwc_sh SH061998 -13.8000 -156.400 55 0 -13.9000 -156.300 50 985 -13.9000 -156.300 50 985 -13.8000 -156.400 TC 55 8 109
1997326S09203 1998 110 SP MM OSEA 1997-11-24 21:00:00 TS -13.9324 -155.982 main 1749 1749 P______IP___P_ SH061998 -13.8500 -155.957 55 0 -14.0149 -156.007 52 982 -14.0149 -156.007 52 982 -13.8500 -155.957 TC 55 7 102
1997326S09203 1998 110 SP MM OSEA 1997-11-25 00:00:00 TS -14.0000 -155.600 55 980 nadi main 1792 1792 O_______O___O_ jtwc_sh SH061998 -13.9000 -155.500 55 0 -14.1000 -155.700 55 980 -14.1000 -155.700 55 980 -13.9000 -155.500 TC 55 8 104
1997326S09203 1998 110 SP MM OSEA 1997-11-25 03:00:00 TS -14.1275 -155.175 main 1835 1835 P______IP___P_ SH061998 -14.0200 -155.035 60 0 -14.2350 -155.315 57 977 -14.2350 -155.315 57 977 -14.0200 -155.035 TC 60 9 110
1997326S09203 1998 110 SP MM OSEA 1997-11-25 06:00:00 TS -14.3000 -154.750 60 975 nadi main 1889 1878 O_______O___O_ jtwc_sh SH061998 -14.2000 -154.600 65 1 -14.4000 -154.900 60 975 -14.4000 -154.900 60 975 -14.2000 -154.600 TC 65 9 116
1997326S09203 1998 110 SP MM OSEA 1997-11-25 09:00:00 TS -14.5062 -154.364 main 1921 1921 P______IP___P_ SH061998 -14.4274 -154.235 65 1 -14.5850 -154.492 62 972 -14.5850 -154.492 62 972 -14.4274 -154.235 TC 65 9 122
1997326S09203 1998 110 SP MM OSEA 1997-11-25 12:00:00 TS -14.7500 -154.000 65 970 nadi main 1964 1964 O_______O___O_ jtwc_sh SH061998 -14.7000 -153.900 65 1 -14.8000 -154.100 65 970 -14.8000 -154.100 65 970 -14.7000 -153.900 TC 65 9 125
1997326S09203 1998 110 SP MM OSEA 1997-11-25 15:00:00 TS -14.9949 -153.646 main 2008 2008 P______IP___P_ SH061998 -14.9700 -153.550 70 1 -15.0199 -153.742 70 965 -15.0199 -153.742 70 965 -14.9700 -153.550 TC 70 9 129
1997326S09203 1998 110 SP MM OSEA 1997-11-25 18:00:00 TS -15.3000 -153.300 75 960 nadi main 2041 2041 O_______O___O_ jtwc_sh SH061998 -15.3000 -153.200 75 1 -15.3000 -153.400 75 960 -15.3000 -153.400 75 960 -15.3000 -153.200 TC 75 10 136
1997326S09203 1998 110 SP MM OSEA 1997-11-25 21:00:00 TS -15.6912 -152.946 main 2086 2086 P______IP___P_ SH061998 -15.7125 -152.842 75 1 -15.6700 -153.050 77 957 -15.6700 -153.050 77 957 -15.7125 -152.842 TC 75 11 142
1997326S09203 1998 110 SP MM OSEA 1997-11-26 00:00:00 TS -16.1500 -152.600 80 955 nadi main 2121 2122 O_______O___O_ jtwc_sh SH061998 -16.2000 -152.500 75 1 -16.1000 -152.700 80 955 -16.1000 -152.700 80 955 -16.2000 -152.500 TC 75 12 145
1997326S09203 1998 110 SP MM OSEA 1997-11-26 03:00:00 TS -16.6350 -152.264 main 2158 2158 P______IP___P_ SH061998 -16.7500 -152.185 82 1 -16.5200 -152.342 80 952 -16.5200 -152.342 80 952 -16.7500 -152.185 TC 82 12 148
1997326S09203 1998 110 SP MM OSEA 1997-11-26 06:00:00 TS -17.1500 -151.950 80 950 nadi main 2206 2197 O_______O___O_ jtwc_sh SH061998 -17.3000 -151.900 90 2 -17.0000 -152.000 80 950 -17.0000 -152.000 80 950 -17.3000 -151.900 TC 90 12 152
1997326S09203 1998 110 SP MM OSEA 1997-11-26 09:00:00 TS -17.7012 -151.660 main 2236 2236 P______IP___P_ SH061998 -17.7799 -151.650 90 2 -17.6225 -151.670 80 952 -17.6225 -151.670 80 952 -17.7799 -151.650 TC 90 12 154
1997326S09203 1998 110 SP MM OSEA 1997-11-26 12:00:00 TS -18.2000 -151.400 80 955 nadi main 2276 2276 O_______O___O_ jtwc_sh SH061998 -18.2000 -151.400 90 2 -18.2000 -151.400 80 955 -18.2000 -151.400 80 955 -18.2000 -151.400 TC 90 10 151
1997326S09203 1998 110 SP MM OSEA 1997-11-26 15:00:00 TS -18.5587 -151.167 main 2304 2304 P______IP___P_ SH061998 -18.5575 -151.107 82 1 -18.5599 -151.227 75 960 -18.5599 -151.227 75 960 -18.5575 -151.107 TC 82 8 147
1997326S09203 1998 110 SP MM OSEA 1997-11-26 18:00:00 TS -18.8500 -150.950 70 965 nadi main 2329 2329 O_______O___O_ jtwc_sh SH061998 -18.9000 -150.800 75 1 -18.8000 -151.100 70 965 -18.8000 -151.100 70 965 -18.9000 -150.800 TC 75 7 145
1997326S09203 1998 110 SP MM OSEA 1997-11-26 21:00:00 TS -19.1537 -150.729 main 2369 2369 P______IP___P_ SH061998 -19.3074 -150.515 65 1 -19.0000 -150.942 65 970 -19.0000 -150.942 65 970 -19.3074 -150.515 TC 65 7 146
1997326S09203 1998 110 SP MM OSEA 1997-11-27 00:00:00 TS -19.4143 -150.543 60 975 nadi main 2394 2394 O_______O___O_ jtwc_sh SH061998 -19.7000 -150.200 55 0 -19.2000 -150.800 60 975 -19.2000 -150.800 60 975 -19.7000 -150.200 TC 55 6 148
1997326S09203 1998 110 SP MM OSEA 1997-11-27 03:00:00 TS -19.6643 -150.392 main 2411 2411 P______IP___P_ SH061998 -20.0228 -149.820 45 0 -19.4850 -150.678 57 977 -19.4850 -150.678 57 977 -20.0228 -149.820 TC 45 5 160
1997326S09203 1998 110 SP MM OSEA 1997-11-27 06:00:00 TS -19.9000 -150.360 55 980 nadi main 2416 2401 O_______O___O_ jtwc_sh SH061998 -20.3000 -149.400 35 0 -19.8000 -150.600 55 980 -19.8000 -150.600 55 980 -20.3000 -149.400 TC 35 5 204
1997326S09203 1998 110 SP MM OSEA 1997-11-27 09:00:00 NR -20.1225 -150.607 main 2401 2401 _______IP_____ SH061998 -1 -20.1225 -150.607 52 982 -20.1225 -150.607 52 982 TC 6 204
1997326S09203 1998 110 SP MM OSEA 1997-11-27 12:00:00 NR -20.4000 -150.600 50 985 nadi main 2409 2409 ________O_____ -1 -20.4000 -150.600 50 985 -20.4000 -150.600 50 985 4 171
1997326S09203 1998 110 SP MM OSEA 1997-11-27 15:00:00 NR -20.5572 -150.532 main 2425 2425 _______IP_____ -1 -20.5572 -150.532 47 986 -20.5572 -150.532 47 986 4 137
1997326S09203 1998 110 SP MM OSEA 1997-11-27 18:00:00 NR -20.7000 -150.300 45 987 nadi main 2447 2447 ________O_____ -1 -20.7000 -150.300 45 987 -20.7000 -150.300 45 987 8 121
1997326S09203 1998 110 SP MM OSEA 1997-11-27 21:00:00 NR -20.9577 -149.818 main 2506 2506 _______IP_____ -1 -20.9577 -149.818 40 991 -20.9577 -149.818 40 991 11 116
1997326S09203 1998 110 SP MM OSEA 1997-11-28 00:00:00 NR -21.2000 -149.200 35 995 nadi main 2572 2572 ________O_____ -1 -21.2000 -149.200 35 995 -21.2000 -149.200 35 995 12 108
1997326S09203 1998 110 SP MM OSEA 1997-11-28 03:00:00 NR -21.3301 -148.585 main 2635 2635 _______IP_____ -1 -21.3301 -148.585 32 996 -21.3301 -148.585 32 996 11 100
1997326S09203 1998 110 SP MM OSEA 1997-11-28 06:00:00 NR -21.4000 -148.000 30 998 nadi main 2698 2698 ________O_____ -1 -21.4000 -148.000 30 998 -21.4000 -148.000 30 998 10 97
1997326S09203 1998 110 SP MM OSEA 1997-11-28 09:00:00 NR -21.4525 -147.518 main 2751 2751 _______IP_____ -1 -21.4525 -147.518 27 999 -21.4525 -147.518 27 999 8 97
1997326S09203 1998 110 SP MM OSEA 1997-11-28 12:00:00 NR -21.5000 -147.100 25 1000 nadi main 2791 ________O_____ -1 -21.5000 -147.100 25 1000 -21.5000 -147.100 25 1000 8 97

デジタル台風データ・検索

IBTrACS Databaseについて

本データベースは、米国NOAAが公開する1842年以降の世界の熱帯低気圧のベストトラックデータアーカイブInternational Best Track Archive for Climate Stewardship (IBTrACS)を、ウェブで閲覧しやすい形式に変換したものです。

最終更新日:2021-10-08